createdAt,value
2022-10-05T00:03:01.197Z,14.7
2022-10-05T00:08:03.059Z,13.9
2022-10-05T00:13:04.995Z,14.4
2022-10-05T00:18:06.935Z,12.9
2022-10-05T00:23:09.186Z,15.3
2022-10-05T00:28:11.225Z,16.2
2022-10-05T00:33:13.605Z,15.5
2022-10-05T00:38:16.071Z,15
2022-10-05T00:43:18.088Z,16
2022-10-05T00:48:20.128Z,16.8
2022-10-05T00:53:22.178Z,13
2022-10-05T00:58:24.149Z,12.1
2022-10-05T01:03:26.129Z,14.8
2022-10-05T01:08:28.090Z,13.9
2022-10-05T01:13:30.068Z,16.3
2022-10-05T01:18:32.147Z,15
2022-10-05T01:23:34.115Z,17.8
2022-10-05T01:28:36.347Z,17.3
2022-10-05T01:33:38.557Z,16.8
2022-10-05T01:38:40.491Z,16.4
2022-10-05T01:43:42.489Z,16
2022-10-05T01:48:44.635Z,16.9
2022-10-05T01:53:46.616Z,19.4
2022-10-05T01:58:48.696Z,15.7
2022-10-05T02:03:51.167Z,17.8
2022-10-05T02:08:53.154Z,15.9
2022-10-05T02:13:55.180Z,16.4
2022-10-05T02:18:57.259Z,16.2
2022-10-05T02:23:59.161Z,14.3
2022-10-05T02:29:01.120Z,15
2022-10-05T02:34:03.151Z,13.7
2022-10-05T02:39:05.139Z,14
2022-10-05T02:44:07.025Z,14.6
2022-10-05T02:49:09.033Z,17.2
2022-10-05T02:54:10.944Z,15.4
2022-10-05T02:59:13.211Z,13.3
2022-10-05T03:04:17.874Z,13
2022-10-05T03:09:19.959Z,13.2
2022-10-05T03:14:21.933Z,13.9
2022-10-05T03:19:23.971Z,12.1
2022-10-05T03:24:26.095Z,11.9
2022-10-05T03:29:27.985Z,11.6
2022-10-05T03:34:29.979Z,10.6
2022-10-05T03:39:32.006Z,11.5
2022-10-05T03:44:34.159Z,9.2
2022-10-05T03:49:36.075Z,10.6
2022-10-05T03:54:38.009Z,13.3
2022-10-05T03:59:40.512Z,12.8
2022-10-05T04:04:42.641Z,13.4
2022-10-05T04:09:44.573Z,15.8
2022-10-05T04:14:46.516Z,17.6
2022-10-05T04:19:48.600Z,18.3
2022-10-05T04:24:51.295Z,19.4
2022-10-05T04:29:54.441Z,15
2022-10-05T04:34:56.691Z,18.5
2022-10-05T04:39:58.770Z,21.4
2022-10-05T04:45:01.027Z,21.2
2022-10-05T04:55:05.366Z,13.4
2022-10-05T05:00:07.767Z,19.8
2022-10-05T05:05:09.867Z,37
2022-10-05T05:10:12.389Z,18.4
2022-10-05T05:15:14.337Z,22.7
2022-10-05T05:20:16.238Z,15.5
2022-10-05T05:25:18.333Z,22
2022-10-05T05:30:20.468Z,21.4
2022-10-05T05:35:22.352Z,23.7
2022-10-05T05:40:24.358Z,20.4
2022-10-05T05:45:26.299Z,18.5
2022-10-05T05:50:28.244Z,28.6
2022-10-05T05:55:30.665Z,18
2022-10-05T06:00:33.099Z,20.1
2022-10-05T06:05:35.170Z,14.9
2022-10-05T06:10:37.542Z,16.2
2022-10-05T06:15:39.572Z,16.2
2022-10-05T06:20:41.482Z,13
2022-10-05T06:25:43.794Z,14.8
2022-10-05T06:30:45.727Z,25.4
2022-10-05T06:35:46.081Z,12.5
2022-10-05T06:40:48.091Z,18.5
2022-10-05T06:45:50.011Z,25.6
2022-10-05T06:50:52.183Z,20.4
2022-10-05T06:55:54.060Z,22.1
2022-10-05T07:00:56.272Z,17.1
2022-10-05T07:05:58.381Z,11.4
2022-10-05T07:11:00.285Z,14.8
2022-10-05T07:16:02.397Z,10.9
2022-10-05T07:21:05.013Z,9.1
2022-10-05T07:26:06.964Z,10.6
2022-10-05T07:31:09.019Z,13.1
2022-10-05T07:36:11.441Z,13.3
2022-10-05T07:41:13.556Z,10.7
2022-10-05T07:46:15.535Z,8.7
2022-10-05T07:51:17.721Z,12.1
2022-10-05T07:56:19.612Z,11.4
2022-10-05T08:01:23.575Z,10.8
2022-10-05T08:06:26.034Z,9.8
2022-10-05T08:11:28.058Z,8.2
2022-10-05T08:16:30.103Z,8.2
2022-10-05T08:21:32.194Z,6.3
2022-10-05T08:26:34.186Z,8
2022-10-05T08:31:36.219Z,6.5
2022-10-05T08:36:38.839Z,6.5
2022-10-05T08:41:40.849Z,7
2022-10-05T08:46:42.908Z,5.4
2022-10-05T08:51:45.117Z,4.7
2022-10-05T08:56:48.826Z,3.6
2022-10-05T09:01:51.223Z,4.1
2022-10-05T09:06:53.648Z,3.4
2022-10-05T09:11:55.757Z,3.5
2022-10-05T09:16:57.627Z,3.2
2022-10-05T09:22:00.251Z,4.8
2022-10-05T09:27:02.210Z,3.4
2022-10-05T09:32:04.127Z,3.1
2022-10-05T09:37:09.193Z,3
2022-10-05T09:42:11.216Z,2.6
2022-10-05T09:47:13.316Z,2.9
2022-10-05T09:52:18.718Z,2.9
2022-10-05T09:57:21.020Z,3.1
2022-10-05T10:02:23.337Z,1.9
2022-10-05T10:07:26.000Z,3.4
2022-10-05T10:12:27.934Z,3.1
2022-10-05T10:17:29.809Z,2.7
2022-10-05T10:22:31.679Z,2.2
2022-10-05T10:27:33.650Z,4.8
2022-10-05T10:32:36.107Z,2.3
2022-10-05T10:37:38.515Z,2.9
2022-10-05T10:42:42.596Z,2.7
2022-10-05T10:47:44.599Z,2.9
2022-10-05T10:52:46.563Z,2.9
2022-10-05T10:57:48.565Z,1.5
2022-10-05T11:02:50.772Z,2.4
2022-10-05T11:07:53.190Z,2.2
2022-10-05T11:12:55.289Z,1.8
2022-10-05T11:17:57.393Z,1.9
2022-10-05T11:22:59.333Z,5.2
2022-10-05T11:28:01.826Z,3
2022-10-05T11:33:05.101Z,2.9
2022-10-05T11:38:07.018Z,2.5
2022-10-05T11:43:08.941Z,2.3
2022-10-05T11:48:10.826Z,3.1
2022-10-05T11:53:13.077Z,1.8
2022-10-05T11:58:14.979Z,2
2022-10-05T12:03:17.083Z,2.5
2022-10-05T12:08:19.732Z,2.8
2022-10-05T12:13:21.620Z,2.1
2022-10-05T12:18:23.754Z,2.1
2022-10-05T12:23:25.695Z,2.4
2022-10-05T12:28:27.639Z,2.2
2022-10-05T12:33:29.707Z,1.7
2022-10-05T12:38:31.679Z,2.7
2022-10-05T12:43:33.687Z,1.5
2022-10-05T12:48:35.628Z,3
2022-10-05T12:53:37.582Z,1.9
2022-10-05T12:58:39.450Z,2.2
2022-10-05T13:03:41.339Z,2.4
2022-10-05T13:08:43.337Z,2.3
2022-10-05T13:13:45.420Z,4.4
2022-10-05T13:18:47.669Z,2.2
2022-10-05T13:23:51.705Z,3.2
2022-10-05T13:28:58.681Z,2.6
2022-10-05T13:34:00.846Z,2.5
2022-10-05T13:39:02.707Z,3.3
2022-10-05T13:44:04.636Z,2.8
2022-10-05T13:49:06.549Z,2.8
2022-10-05T13:54:08.496Z,2.2
2022-10-05T13:59:10.392Z,2.5
2022-10-05T14:04:12.293Z,2.1
2022-10-05T14:09:14.309Z,2
2022-10-05T14:14:16.189Z,3.3
2022-10-05T14:19:18.073Z,3.8
2022-10-05T14:24:25.757Z,3.8
2022-10-05T14:29:26.176Z,2.7
2022-10-05T14:34:29.215Z,2.7
2022-10-05T14:39:31.476Z,2.9
2022-10-05T14:44:33.589Z,3.6
2022-10-05T14:49:35.938Z,1.8
2022-10-05T14:54:37.956Z,3.3
2022-10-05T14:59:40.020Z,3.4
2022-10-05T15:04:41.927Z,2.8
2022-10-05T15:09:44.035Z,2.8
2022-10-05T15:14:45.935Z,3.1
2022-10-05T15:19:48.062Z,1.9
2022-10-05T15:24:50.051Z,2.8
2022-10-05T15:29:52.638Z,3.5
2022-10-05T15:34:54.836Z,2.7
2022-10-05T15:39:56.844Z,2.6
2022-10-05T15:44:59.268Z,2.1
2022-10-05T15:50:01.618Z,3.1
2022-10-05T15:55:03.506Z,3
2022-10-05T16:00:05.681Z,3.2
2022-10-05T16:05:07.930Z,4
2022-10-05T16:10:09.845Z,3.5
2022-10-05T16:15:11.703Z,7.1
2022-10-05T16:20:13.608Z,3.8
2022-10-05T16:25:16.101Z,8
2022-10-05T16:30:16.494Z,5.1
2022-10-05T16:35:18.423Z,6
2022-10-05T16:40:20.258Z,6.9
2022-10-05T16:45:22.325Z,7.8
2022-10-05T16:50:24.503Z,6.3
2022-10-05T16:55:26.638Z,8.9
2022-10-05T17:00:28.605Z,7
2022-10-05T17:05:30.687Z,11.8
2022-10-05T17:10:33.123Z,7.3
2022-10-05T17:15:35.162Z,7.1
2022-10-05T17:20:41.713Z,10.2
2022-10-05T17:25:44.506Z,6.8
2022-10-05T17:30:46.571Z,7.3
2022-10-05T17:35:49.826Z,7
2022-10-05T17:40:52.026Z,10.8
2022-10-05T17:45:54.022Z,8.3
2022-10-05T17:50:56.437Z,6.4
2022-10-05T17:55:58.461Z,7
2022-10-05T18:01:00.473Z,10
2022-10-05T18:06:02.732Z,7.5
2022-10-05T18:11:04.811Z,7.4
2022-10-05T18:16:06.979Z,7.7
2022-10-05T18:21:09.518Z,9.3
2022-10-05T18:26:11.501Z,9.4
2022-10-05T18:31:13.491Z,10.4
2022-10-05T18:36:15.767Z,10.5
2022-10-05T18:41:17.719Z,11.6
2022-10-05T18:46:20.408Z,10.4
2022-10-05T18:51:24.231Z,10.3
2022-10-05T18:56:27.089Z,8.9
2022-10-05T19:01:29.373Z,9.5
2022-10-05T19:06:32.231Z,8.9
2022-10-05T19:11:35.311Z,9
2022-10-05T19:16:37.368Z,10.1
2022-10-05T19:21:41.968Z,8.7
2022-10-05T19:26:48.791Z,9.4
2022-10-05T19:31:50.882Z,9.4
2022-10-05T19:36:52.980Z,9.2
2022-10-05T19:41:54.992Z,10.6
2022-10-05T19:46:57.192Z,8
2022-10-05T19:51:59.537Z,8.4
2022-10-05T19:57:01.588Z,9.5
2022-10-05T20:02:03.627Z,10.2
2022-10-05T20:07:06.139Z,13.1
2022-10-05T20:12:08.168Z,8.3
2022-10-05T20:17:10.169Z,10.9
2022-10-05T20:22:12.349Z,9.1
2022-10-05T20:27:16.027Z,9.9
2022-10-05T20:32:18.545Z,10.7
2022-10-05T20:37:20.590Z,10.1
2022-10-05T20:42:22.566Z,10.7
2022-10-05T20:47:24.679Z,9.5
2022-10-05T20:52:26.655Z,9.3
2022-10-05T20:57:28.623Z,9.9
2022-10-05T21:02:30.555Z,10.5
2022-10-05T21:07:32.517Z,13.3
2022-10-05T21:12:34.642Z,10.4
2022-10-05T21:17:36.564Z,9.1
2022-10-05T21:22:38.969Z,9.4
2022-10-05T21:27:40.933Z,10.8
2022-10-05T21:32:44.530Z,11.1
2022-10-05T21:37:47.417Z,10.9
2022-10-05T21:42:49.335Z,10.8
2022-10-05T21:47:51.254Z,12.7
2022-10-05T21:52:53.196Z,11.1
2022-10-05T21:57:55.080Z,10.3
2022-10-05T22:02:57.025Z,11.5
2022-10-05T22:07:58.980Z,10.8
2022-10-05T22:13:00.955Z,12.3
2022-10-05T22:18:03.155Z,10.7
2022-10-05T22:23:05.545Z,12.7
2022-10-05T22:28:09.998Z,10.9
2022-10-05T22:33:12.351Z,11.9
2022-10-05T22:38:14.334Z,12.1
2022-10-05T22:43:16.304Z,11.8
2022-10-05T22:48:18.195Z,11.5
2022-10-05T22:53:20.082Z,11.9
2022-10-05T22:58:31.139Z,11.5
2022-10-05T23:03:23.357Z,11.4
2022-10-05T23:08:25.713Z,10.7
2022-10-05T23:13:30.253Z,10
2022-10-05T23:18:32.322Z,11.3
2022-10-05T23:23:34.757Z,12.7
2022-10-05T23:28:36.727Z,11.1
2022-10-05T23:33:39.320Z,9.7
2022-10-05T23:38:41.263Z,11
2022-10-05T23:43:43.132Z,12.8
2022-10-05T23:48:45.100Z,11
2022-10-05T23:53:47.164Z,10.5
2022-10-05T23:58:49.067Z,11.4
